ADDS METAR Data INFO
IDs: Format: Raw Decoded Include TAF

Data at: 1749 UTC 21 Oct 2017

KASG 211748Z 17013G25KT 10SM SCT027 BKN120 24/18 A2998
KASG 211648Z 18018G23KT 10SM BKN023 BKN028 BKN038 24/18 A3000
KASG 211548Z 18016G22KT 10SM SCT023 BKN027 BKN041 23/18 A3001
KASG 211448Z 19016G22KT 10SM SCT033 SCT040 BKN055 22/17 A3002
KASG 211348Z 17016G21KT 10SM BKN055 20/17 A2999
KASG 211249Z 17011KT 10SM BKN050 19/16 A2997
KASG 211248Z 17011KT 10SM OVC050 19/16 A2997
KASG 211148Z 15011G17KT 10SM OVC023 19/16 A2998
KASG 211048Z 15011G17KT 10SM FEW023 BKN055 19/16 A2997
KASG 210148Z 14012G17KT 10SM SKC 19/15 A3001
KASG 210048Z 15006G17KT 9SM SKC 19/15 A3001
KASG 202348Z 15010KT 10SM SCT150 19/15 A3001
KASG 202248Z 15010G16KT 10SM SCT150 22/14 A3002
KASG 202148Z 15010G18KT 10SM BKN150 22/14 A3004
KASG 202048Z 16012KT 10SM BKN150 23/15 A3005
KASG 201948Z 14010G16KT 10SM BKN120 21/15 A3008
KASG 201848Z 17007G13KT 10SM SCT060 SCT075 OVC200 20/13 A3011
KASG 201748Z 18008KT 10SM FEW080 FEW095 SCT120 21/12 A3013
KASG 201648Z 16009KT 10SM SCT150 BKN200 21/12 A3014
KASG 201548Z 16004KT 10SM SCT150 BKN200 19/13 A3016
KASG 201448Z 16004KT 10SM SCT150 BKN200 17/12 A3019
KASG 201348Z 14004KT 10SM SCT150 BKN200 15/12 A3019
KASG 201248Z 11003KT 10SM BKN150 13/11 A3016
KASG 201148Z 12003KT 7SM SKC 13/11 A3018
KASG 201048Z 13004KT 7SM SKC 14/11 A3018